createdAt,value
2022-10-15T00:01:07.284Z,9.34
2022-10-15T00:02:10.444Z,9.36
2022-10-15T00:03:14.854Z,9.37
2022-10-15T00:04:18.004Z,9.37
2022-10-15T00:05:21.729Z,9.37
2022-10-15T00:06:24.634Z,9.37
2022-10-15T00:07:28.982Z,9.37
2022-10-15T00:08:31.922Z,9.38
2022-10-15T00:09:34.869Z,9.39
2022-10-15T00:10:37.866Z,9.40
2022-10-15T00:11:40.769Z,9.41
2022-10-15T00:12:43.904Z,9.40
2022-10-15T00:13:48.894Z,9.39
2022-10-15T00:14:51.876Z,9.39
2022-10-15T00:15:54.756Z,9.39
2022-10-15T00:16:57.933Z,9.39
2022-10-15T00:18:00.781Z,9.39
2022-10-15T00:19:03.673Z,9.39
2022-10-15T00:20:08.302Z,9.38
2022-10-15T00:21:12.379Z,9.38
2022-10-15T00:22:15.326Z,9.39
2022-10-15T00:23:18.218Z,9.38
2022-10-15T00:24:22.423Z,9.39
2022-10-15T00:25:25.627Z,9.39
2022-10-15T00:26:29.187Z,9.39
2022-10-15T00:27:32.165Z,9.39
2022-10-15T00:28:35.102Z,9.40
2022-10-15T00:29:38.047Z,9.41
2022-10-15T00:30:41.161Z,9.42
2022-10-15T00:31:44.019Z,9.42
2022-10-15T00:32:48.622Z,9.42
2022-10-15T00:33:51.913Z,9.42
2022-10-15T00:34:54.739Z,9.42
2022-10-15T00:36:06.101Z,9.43
2022-10-15T00:37:09.098Z,9.43
2022-10-15T00:38:12.019Z,9.44
2022-10-15T00:39:15.146Z,9.43
2022-10-15T00:40:19.928Z,9.43
2022-10-15T00:41:25.064Z,9.42
2022-10-15T00:42:28.013Z,9.43
2022-10-15T00:43:40.007Z,9.42
2022-10-15T00:45:03.113Z,9.42
2022-10-15T00:46:12.696Z,9.43
2022-10-15T00:47:23.122Z,9.45
2022-10-15T00:48:26.760Z,9.44
2022-10-15T00:49:32.304Z,9.44
2022-10-15T00:50:35.639Z,9.46
2022-10-15T00:51:42.429Z,9.48
2022-10-15T00:53:03.575Z,9.49
2022-10-15T00:54:08.395Z,9.51
2022-10-15T00:55:14.302Z,9.53
2022-10-15T00:56:19.901Z,9.55
2022-10-15T00:57:23.337Z,9.56
2022-10-15T00:58:28.532Z,9.58
2022-10-15T00:59:32.635Z,9.60
2022-10-15T01:00:35.695Z,9.62
2022-10-15T01:01:38.656Z,9.63
2022-10-15T01:02:42.361Z,9.65
2022-10-15T01:03:45.438Z,9.67
2022-10-15T01:04:48.816Z,9.69
2022-10-15T01:05:52.504Z,9.71
2022-10-15T01:06:55.514Z,9.73
2022-10-15T01:07:58.345Z,9.75
2022-10-15T01:09:02.157Z,9.76
2022-10-15T01:10:06.374Z,9.78
2022-10-15T01:11:15.161Z,9.80
2022-10-15T01:12:27.458Z,9.83
2022-10-15T01:13:38.012Z,9.85
2022-10-15T01:14:54.562Z,9.87
2022-10-15T01:16:00.417Z,9.89
2022-10-15T01:17:11.945Z,9.91
2022-10-15T01:18:16.344Z,9.93
2022-10-15T01:19:33.995Z,9.96
2022-10-15T01:20:36.977Z,9.97
2022-10-15T01:21:47.393Z,9.98
2022-10-15T01:22:53.006Z,9.99
2022-10-15T01:24:14.077Z,10.01
2022-10-15T01:25:23.408Z,10.04
2022-10-15T01:26:26.425Z,10.06
2022-10-15T01:27:29.307Z,10.08
2022-10-15T01:28:47.451Z,10.10
2022-10-15T01:29:50.271Z,10.13
2022-10-15T01:30:59.901Z,10.14
2022-10-15T01:32:07.825Z,10.15
2022-10-15T01:33:13.449Z,10.18
2022-10-15T01:34:33.757Z,10.19
2022-10-15T01:35:44.414Z,10.21
2022-10-15T01:36:53.063Z,10.23
2022-10-15T01:38:00.408Z,10.23
2022-10-15T01:39:15.751Z,10.23
2022-10-15T01:40:18.646Z,10.25
2022-10-15T01:41:27.599Z,10.26
2022-10-15T01:42:34.487Z,10.27
2022-10-15T01:43:43.168Z,10.27
2022-10-15T01:45:08.791Z,10.27
2022-10-15T01:46:50.029Z,10.27
2022-10-15T01:47:58.308Z,10.26
2022-10-15T01:49:03.899Z,10.26
2022-10-15T01:50:08.272Z,10.25
2022-10-15T01:51:12.882Z,10.26
2022-10-15T01:52:18.826Z,10.26
2022-10-15T01:53:26.644Z,10.27
2022-10-15T01:54:30.548Z,10.29
2022-10-15T01:55:34.460Z,10.31
2022-10-15T01:56:38.917Z,10.33
2022-10-15T01:57:43.311Z,10.35
2022-10-15T01:58:48.109Z,10.39
2022-10-15T01:59:51.455Z,10.39
2022-10-15T02:00:56.056Z,10.41
2022-10-15T02:01:58.940Z,10.41
2022-10-15T02:03:02.707Z,10.42
2022-10-15T02:04:19.380Z,10.43
2022-10-15T02:05:29.878Z,10.44
2022-10-15T02:06:42.451Z,10.44
2022-10-15T02:07:58.843Z,10.46
2022-10-15T02:09:02.195Z,10.48
2022-10-15T02:10:05.063Z,10.48
2022-10-15T02:11:11.745Z,10.48
2022-10-15T02:12:32.772Z,10.49
2022-10-15T02:13:55.743Z,10.52
2022-10-15T02:15:01.722Z,10.54
2022-10-15T02:16:04.811Z,10.56
2022-10-15T02:17:11.387Z,10.58
2022-10-15T02:18:33.039Z,10.58
2022-10-15T02:19:43.166Z,10.57
2022-10-15T02:20:57.801Z,10.56
2022-10-15T02:22:09.220Z,10.59
2022-10-15T02:23:25.693Z,10.60
2022-10-15T02:24:39.236Z,10.61
2022-10-15T02:25:43.528Z,10.62
2022-10-15T02:26:47.107Z,10.64
2022-10-15T02:27:52.406Z,10.64
2022-10-15T02:28:57.529Z,10.64
2022-10-15T02:30:03.494Z,10.65
2022-10-15T02:32:50.153Z,10.64
2022-10-15T02:33:59.354Z,10.63
2022-10-15T02:35:02.605Z,10.62
2022-10-15T02:36:06.324Z,10.61
2022-10-15T02:37:10.194Z,10.60
2022-10-15T02:38:15.024Z,10.59
2022-10-15T02:39:20.764Z,10.60
2022-10-15T02:40:27.651Z,10.62
2022-10-15T02:41:30.813Z,10.63
2022-10-15T02:42:33.781Z,10.63
2022-10-15T02:43:37.415Z,10.62
2022-10-15T02:44:41.316Z,10.63
2022-10-15T02:45:44.284Z,10.62
2022-10-15T02:46:47.195Z,10.61
2022-10-15T02:47:50.994Z,10.62
2022-10-15T02:48:54.220Z,10.63
2022-10-15T02:49:57.175Z,10.64
2022-10-15T02:51:00.033Z,10.65
2022-10-15T02:52:03.425Z,10.65
2022-10-15T02:53:06.519Z,10.65
2022-10-15T02:54:10.274Z,10.65
2022-10-15T02:55:13.498Z,10.66
2022-10-15T02:56:17.167Z,10.67
2022-10-15T02:57:20.229Z,10.66
2022-10-15T02:58:23.279Z,10.66
2022-10-15T02:59:26.344Z,10.67
2022-10-15T03:00:29.619Z,10.68
2022-10-15T03:01:33.125Z,10.67
2022-10-15T03:02:36.272Z,10.67
2022-10-15T03:03:39.879Z,10.68
2022-10-15T03:04:42.849Z,10.66
2022-10-15T03:05:46.067Z,10.63
2022-10-15T03:06:49.141Z,10.61
2022-10-15T03:07:52.328Z,10.61
2022-10-15T03:08:55.683Z,10.61
2022-10-15T03:09:59.424Z,10.58
2022-10-15T03:11:03.397Z,10.58
2022-10-15T03:12:06.646Z,10.59
2022-10-15T03:13:09.623Z,10.59
2022-10-15T03:14:19.864Z,10.57
2022-10-15T03:15:22.836Z,10.56
2022-10-15T03:16:26.522Z,10.57
2022-10-15T03:17:29.442Z,10.56
2022-10-15T03:18:35.622Z,10.54
2022-10-15T03:19:41.243Z,10.52
2022-10-15T03:20:44.274Z,10.52
2022-10-15T03:21:49.395Z,10.51
2022-10-15T03:22:52.514Z,10.49
2022-10-15T03:23:55.788Z,10.48
2022-10-15T03:24:59.575Z,10.49
2022-10-15T03:26:03.544Z,10.50
2022-10-15T03:27:06.687Z,10.53
2022-10-15T03:28:09.660Z,10.53
2022-10-15T03:29:15.608Z,10.53
2022-10-15T03:30:22.684Z,10.55
2022-10-15T03:31:27.620Z,10.56
2022-10-15T03:32:34.310Z,10.57
2022-10-15T03:33:39.427Z,10.57
2022-10-15T03:34:42.561Z,10.57
2022-10-15T03:35:46.793Z,10.58
2022-10-15T03:36:49.854Z,10.58
2022-10-15T03:37:54.078Z,10.59
2022-10-15T03:38:57.145Z,10.59
2022-10-15T03:40:00.019Z,10.59
2022-10-15T03:41:03.751Z,10.59
2022-10-15T03:42:10.719Z,10.57
2022-10-15T03:43:23.557Z,10.57
2022-10-15T03:44:28.586Z,10.58
2022-10-15T03:45:41.714Z,10.60
2022-10-15T03:46:53.290Z,10.60
2022-10-15T03:47:58.147Z,10.59
2022-10-15T03:49:04.235Z,10.58
2022-10-15T03:50:07.608Z,10.57
2022-10-15T03:51:10.473Z,10.56
2022-10-15T03:52:13.764Z,10.56
2022-10-15T03:53:17.282Z,10.55
2022-10-15T03:54:20.739Z,10.54
2022-10-15T03:55:26.645Z,10.55
2022-10-15T03:56:29.878Z,10.55
2022-10-15T03:57:43.930Z,10.55
2022-10-15T03:58:47.093Z,10.55
2022-10-15T03:59:50.615Z,10.55
2022-10-15T04:00:53.759Z,10.56
2022-10-15T04:01:56.610Z,10.54
2022-10-15T04:02:59.545Z,10.54
2022-10-15T04:04:03.835Z,10.54
2022-10-15T04:05:06.940Z,10.54
2022-10-15T04:06:11.308Z,10.53
2022-10-15T04:07:14.692Z,10.54
2022-10-15T04:08:17.810Z,10.53
2022-10-15T04:09:20.739Z,10.53
2022-10-15T04:10:24.151Z,10.54
2022-10-15T04:11:26.968Z,10.55
2022-10-15T04:12:36.598Z,10.54
2022-10-15T04:13:39.597Z,10.54
2022-10-15T04:14:42.955Z,10.53
2022-10-15T04:15:48.398Z,10.53
2022-10-15T04:16:51.328Z,10.54
2022-10-15T04:17:57.054Z,10.53
2022-10-15T04:19:02.808Z,10.53
2022-10-15T04:20:06.591Z,10.52
2022-10-15T04:21:09.867Z,10.53
2022-10-15T04:22:13.493Z,10.52
2022-10-15T04:23:32.361Z,10.53
2022-10-15T04:24:53.577Z,10.53
2022-10-15T04:26:04.219Z,10.53
2022-10-15T04:27:07.702Z,10.54
2022-10-15T04:28:10.651Z,10.54
2022-10-15T04:29:13.943Z,10.53
2022-10-15T04:30:17.598Z,10.51
2022-10-15T04:31:25.765Z,10.46
2022-10-15T04:32:28.942Z,10.44
2022-10-15T04:33:31.868Z,10.44
2022-10-15T04:34:35.229Z,10.43
2022-10-15T04:35:38.825Z,10.44
2022-10-15T04:36:48.179Z,10.44
2022-10-15T04:37:57.510Z,10.44
2022-10-15T04:39:00.658Z,10.44
2022-10-15T04:40:23.784Z,10.44
2022-10-15T04:41:26.816Z,10.45
2022-10-15T04:42:39.829Z,10.45
2022-10-15T04:43:42.715Z,10.44
2022-10-15T04:44:46.469Z,10.43
2022-10-15T04:45:49.503Z,10.39
2022-10-15T04:46:54.760Z,10.37
2022-10-15T04:48:09.879Z,10.36
2022-10-15T04:49:12.949Z,10.36
2022-10-15T04:50:21.210Z,10.36
2022-10-15T04:51:51.374Z,10.36
2022-10-15T04:52:59.455Z,10.36
2022-10-15T04:54:03.213Z,10.36
2022-10-15T04:55:06.915Z,10.36
2022-10-15T04:56:18.931Z,10.35
2022-10-15T04:57:22.755Z,10.35
2022-10-15T04:58:26.165Z,10.33
2022-10-15T04:59:29.913Z,10.32
2022-10-15T05:00:53.270Z,10.30
2022-10-15T05:02:04.769Z,10.29
2022-10-15T05:03:07.647Z,10.29
2022-10-15T05:04:37.276Z,10.29
2022-10-15T05:05:45.171Z,10.29
2022-10-15T05:06:48.281Z,10.29
2022-10-15T05:07:54.231Z,10.30
2022-10-15T05:08:57.956Z,10.30
2022-10-15T05:10:04.551Z,10.29
2022-10-15T05:11:09.412Z,10.29
2022-10-15T05:12:12.673Z,10.29
2022-10-15T05:13:15.904Z,10.27
2022-10-15T05:14:19.612Z,10.25
2022-10-15T05:15:37.628Z,10.24
2022-10-15T05:16:44.114Z,10.23
2022-10-15T05:17:48.517Z,10.21
2022-10-15T05:18:57.584Z,10.17
2022-10-15T05:20:00.529Z,10.15
2022-10-15T05:21:04.597Z,10.13
2022-10-15T05:22:07.582Z,10.11
2022-10-15T05:23:13.116Z,10.10
2022-10-15T05:24:17.446Z,10.10
2022-10-15T05:25:31.165Z,10.10
2022-10-15T05:26:34.278Z,10.10
2022-10-15T05:27:37.615Z,10.09
2022-10-15T05:28:41.471Z,10.07
2022-10-15T05:29:44.664Z,10.07
2022-10-15T05:30:47.530Z,10.06
2022-10-15T05:31:50.702Z,10.06
2022-10-15T05:32:56.383Z,10.06
2022-10-15T05:33:59.488Z,10.06
2022-10-15T05:35:08.801Z,10.05
2022-10-15T05:36:43.753Z,10.04
2022-10-15T05:37:46.678Z,10.05
2022-10-15T05:38:54.147Z,10.05
2022-10-15T05:39:57.168Z,10.07
2022-10-15T05:41:01.477Z,10.07
2022-10-15T05:42:04.513Z,10.08
2022-10-15T05:43:16.213Z,10.09
2022-10-15T05:45:40.383Z,10.09
2022-10-15T05:46:43.368Z,10.08
2022-10-15T05:47:48.074Z,10.09
2022-10-15T05:48:54.314Z,10.08
2022-10-15T05:49:57.293Z,10.08
2022-10-15T05:51:05.097Z,10.07
2022-10-15T05:52:08.177Z,10.06
2022-10-15T05:53:31.027Z,10.05
2022-10-15T05:54:40.395Z,10.05
2022-10-15T05:55:43.276Z,10.05
2022-10-15T05:56:46.256Z,10.06
2022-10-15T05:57:49.072Z,10.07
2022-10-15T05:58:51.943Z,10.07
2022-10-15T05:59:58.219Z,10.08
2022-10-15T06:01:02.551Z,10.08
2022-10-15T06:02:08.753Z,10.08
2022-10-15T06:03:13.261Z,10.08
2022-10-15T06:04:17.069Z,10.08
2022-10-15T06:05:20.283Z,10.07
2022-10-15T06:06:24.078Z,10.08
2022-10-15T06:07:27.785Z,10.07
2022-10-15T06:08:31.048Z,10.08
2022-10-15T06:09:34.262Z,10.10
2022-10-15T06:10:37.972Z,10.12
2022-10-15T06:11:40.876Z,10.12
2022-10-15T06:12:48.400Z,10.14
2022-10-15T06:13:51.272Z,10.15
2022-10-15T06:14:54.089Z,10.16
2022-10-15T06:15:57.218Z,10.16
2022-10-15T06:17:00.056Z,10.18
2022-10-15T06:18:03.188Z,10.21
2022-10-15T06:19:07.396Z,10.21
2022-10-15T06:20:10.744Z,10.23
2022-10-15T06:21:14.065Z,10.24
2022-10-15T06:22:16.972Z,10.25
2022-10-15T06:23:20.024Z,10.26
2022-10-15T06:24:38.365Z,10.27
2022-10-15T06:25:43.815Z,10.30
2022-10-15T06:26:47.062Z,10.31
2022-10-15T06:27:49.888Z,10.33
2022-10-15T06:28:52.859Z,10.36
2022-10-15T06:29:55.974Z,10.39
2022-10-15T06:30:59.958Z,10.40
2022-10-15T06:32:10.328Z,10.41
2022-10-15T06:33:17.178Z,10.42
2022-10-15T06:34:20.180Z,10.43
2022-10-15T06:35:23.592Z,10.44
2022-10-15T06:36:26.633Z,10.46
2022-10-15T06:37:29.937Z,10.48
2022-10-15T06:38:34.750Z,10.51
2022-10-15T06:39:38.038Z,10.53
2022-10-15T06:40:40.944Z,10.55
2022-10-15T06:41:43.848Z,10.57
2022-10-15T06:42:46.812Z,10.59
2022-10-15T06:43:50.345Z,10.61
2022-10-15T06:44:53.504Z,10.63
2022-10-15T06:45:58.713Z,10.66
2022-10-15T06:47:01.788Z,10.70
2022-10-15T06:48:05.506Z,10.73
2022-10-15T06:49:08.766Z,10.75
2022-10-15T06:50:13.187Z,10.76
2022-10-15T06:51:16.321Z,10.77
2022-10-15T06:52:26.256Z,10.77
2022-10-15T06:53:29.553Z,10.76
2022-10-15T06:54:35.305Z,10.75
2022-10-15T06:55:40.333Z,10.72
2022-10-15T06:56:43.200Z,10.71
2022-10-15T06:57:46.042Z,10.71
2022-10-15T06:58:52.792Z,10.70
2022-10-15T06:59:55.619Z,10.69
2022-10-15T07:01:02.511Z,10.69
2022-10-15T07:02:05.406Z,10.69
2022-10-15T07:03:08.461Z,10.69
2022-10-15T07:04:11.433Z,10.69
2022-10-15T07:05:14.265Z,10.69
2022-10-15T07:06:17.874Z,10.70
2022-10-15T07:07:20.730Z,10.71
2022-10-15T07:08:24.963Z,10.72
2022-10-15T07:09:27.828Z,10.72
2022-10-15T07:10:30.697Z,10.73
2022-10-15T07:11:34.175Z,10.75
2022-10-15T07:12:37.002Z,10.77
2022-10-15T07:13:40.191Z,10.79
2022-10-15T07:14:43.569Z,10.81
2022-10-15T07:15:49.519Z,10.85
2022-10-15T07:16:52.694Z,10.90
2022-10-15T07:17:57.933Z,10.95
2022-10-15T07:19:00.971Z,11.00
2022-10-15T07:20:04.026Z,11.03
2022-10-15T07:21:07.867Z,11.05
2022-10-15T07:22:11.050Z,11.09
2022-10-15T07:23:14.174Z,11.14
2022-10-15T07:24:17.347Z,11.19
2022-10-15T07:25:20.222Z,11.24
2022-10-15T07:26:23.191Z,11.28
2022-10-15T07:27:26.504Z,11.34
2022-10-15T07:28:30.135Z,11.39
2022-10-15T07:29:33.394Z,11.43
2022-10-15T07:30:36.307Z,11.49
2022-10-15T07:31:39.125Z,11.55
2022-10-15T07:32:44.447Z,11.60
2022-10-15T07:33:49.459Z,11.66
2022-10-15T07:34:52.248Z,11.71
2022-10-15T07:35:55.178Z,11.77
2022-10-15T07:36:58.013Z,11.82
2022-10-15T07:38:02.280Z,11.86
2022-10-15T07:39:05.150Z,11.91
2022-10-15T07:40:08.934Z,11.95
2022-10-15T07:41:13.609Z,11.99
2022-10-15T07:42:18.184Z,12.02
2022-10-15T07:43:21.211Z,12.03
2022-10-15T07:44:23.976Z,12.05
2022-10-15T07:45:27.294Z,12.08
2022-10-15T07:46:30.257Z,12.12
2022-10-15T07:47:41.349Z,12.16
2022-10-15T07:48:44.383Z,12.19
2022-10-15T07:49:47.174Z,12.22
2022-10-15T07:51:00.342Z,12.25
2022-10-15T07:52:03.491Z,12.30
2022-10-15T07:53:06.330Z,12.32
2022-10-15T07:54:09.290Z,12.34
2022-10-15T07:55:12.446Z,12.34
2022-10-15T07:56:15.918Z,12.36
2022-10-15T07:57:18.834Z,12.38
2022-10-15T07:58:22.282Z,12.40
2022-10-15T07:59:25.176Z,12.43
2022-10-15T08:00:28.307Z,12.46
2022-10-15T08:01:31.134Z,12.48
2022-10-15T08:02:34.098Z,12.49
2022-10-15T08:03:37.655Z,12.50
2022-10-15T08:04:40.671Z,12.51
2022-10-15T08:05:43.676Z,12.53
2022-10-15T08:06:47.073Z,12.54
2022-10-15T08:07:49.939Z,12.55
2022-10-15T08:08:52.838Z,12.57
2022-10-15T08:09:55.877Z,12.60
2022-10-15T08:11:06.433Z,12.64
2022-10-15T08:12:09.652Z,12.67
2022-10-15T08:13:13.048Z,12.68
2022-10-15T08:14:16.131Z,12.69
2022-10-15T08:15:19.504Z,12.70
2022-10-15T08:16:22.419Z,12.71
2022-10-15T08:17:33.990Z,12.73
2022-10-15T08:18:37.998Z,12.74
2022-10-15T08:19:40.936Z,12.76
2022-10-15T08:20:44.124Z,12.79
2022-10-15T08:21:47.559Z,12.78
2022-10-15T08:22:50.694Z,12.76
2022-10-15T08:23:53.676Z,12.75
2022-10-15T08:25:02.040Z,12.75
2022-10-15T08:26:05.157Z,12.78
2022-10-15T08:27:08.161Z,12.80
2022-10-15T08:28:11.103Z,12.80
2022-10-15T08:29:14.127Z,12.81
2022-10-15T08:30:17.030Z,12.82
2022-10-15T08:31:20.100Z,12.82
2022-10-15T08:32:23.081Z,12.84
2022-10-15T08:33:26.074Z,12.87
2022-10-15T08:34:29.005Z,12.90
2022-10-15T08:35:35.424Z,12.93
2022-10-15T08:36:38.659Z,12.97
2022-10-15T08:37:41.428Z,13.02
2022-10-15T08:38:44.388Z,13.05
2022-10-15T08:39:47.356Z,13.10
2022-10-15T08:40:52.002Z,13.13
2022-10-15T08:41:57.227Z,13.17
2022-10-15T08:43:00.162Z,13.21
2022-10-15T08:44:03.483Z,13.24
2022-10-15T08:45:14.191Z,13.26
2022-10-15T08:46:25.085Z,13.28
2022-10-15T08:47:31.608Z,13.28
2022-10-15T08:48:38.001Z,13.28
2022-10-15T08:49:47.885Z,13.29
2022-10-15T08:51:03.652Z,13.32
2022-10-15T08:52:12.822Z,13.33
2022-10-15T08:53:19.098Z,13.35
2022-10-15T08:54:22.234Z,13.37
2022-10-15T08:55:29.163Z,13.38
2022-10-15T08:56:37.211Z,13.38
2022-10-15T08:57:52.781Z,13.38
2022-10-15T08:59:05.991Z,13.37
2022-10-15T09:00:14.077Z,13.37
2022-10-15T09:01:35.523Z,13.39
2022-10-15T09:02:58.864Z,13.42
2022-10-15T09:04:21.470Z,13.45
2022-10-15T09:05:36.614Z,13.46
2022-10-15T09:06:40.064Z,13.47
2022-10-15T09:07:48.695Z,13.47
2022-10-15T09:09:13.144Z,13.47
2022-10-15T09:10:27.905Z,13.48
2022-10-15T09:11:49.007Z,13.50
2022-10-15T09:13:03.617Z,13.52
2022-10-15T09:14:10.956Z,13.56
2022-10-15T09:15:16.112Z,13.59
2022-10-15T09:16:21.669Z,13.61
2022-10-15T09:17:27.197Z,13.64
2022-10-15T09:18:32.324Z,13.66
2022-10-15T09:19:37.586Z,13.68
2022-10-15T09:20:41.852Z,13.69
2022-10-15T09:21:45.803Z,13.70
2022-10-15T09:22:52.208Z,13.73
2022-10-15T09:23:57.058Z,13.76
2022-10-15T09:25:04.579Z,13.80
2022-10-15T09:26:13.353Z,13.81
2022-10-15T09:27:34.079Z,13.83
2022-10-15T09:28:44.801Z,13.87
2022-10-15T09:29:54.098Z,13.91
2022-10-15T09:30:57.900Z,13.95
2022-10-15T09:32:19.259Z,13.98
2022-10-15T09:33:45.333Z,14.04
2022-10-15T09:35:01.916Z,14.10
2022-10-15T09:36:04.754Z,14.16
2022-10-15T09:37:29.691Z,14.19
2022-10-15T09:38:42.677Z,14.24
2022-10-15T09:40:02.902Z,14.26
2022-10-15T09:41:18.726Z,14.28
2022-10-15T09:42:25.009Z,14.32
2022-10-15T09:43:35.406Z,14.35
2022-10-15T09:44:40.381Z,14.38
2022-10-15T09:45:43.211Z,14.41
2022-10-15T09:46:47.012Z,14.44
2022-10-15T09:47:50.279Z,14.46
2022-10-15T09:49:01.946Z,14.49
2022-10-15T09:50:06.884Z,14.50
2022-10-15T09:51:24.513Z,14.52
2022-10-15T09:52:27.417Z,14.54
2022-10-15T09:53:47.763Z,14.58
2022-10-15T09:55:09.413Z,14.60
2022-10-15T09:56:18.967Z,14.63
2022-10-15T09:57:23.693Z,14.67
2022-10-15T09:58:30.170Z,14.70
2022-10-15T09:59:33.048Z,14.74
2022-10-15T10:00:58.287Z,14.78
2022-10-15T10:02:03.776Z,14.83
2022-10-15T10:03:08.109Z,14.87
2022-10-15T10:04:14.226Z,14.89
2022-10-15T10:05:20.893Z,14.90
2022-10-15T10:06:24.678Z,14.91
2022-10-15T10:07:35.223Z,14.92
2022-10-15T10:10:00.768Z,14.92
2022-10-15T10:11:05.023Z,14.91
2022-10-15T10:12:16.589Z,14.89
2022-10-15T10:13:24.433Z,14.87
2022-10-15T10:14:36.188Z,14.85
2022-10-15T10:15:41.413Z,14.84
2022-10-15T10:17:03.035Z,14.84
2022-10-15T10:18:06.748Z,14.84
2022-10-15T10:19:14.279Z,14.84
2022-10-15T10:20:18.822Z,14.85
2022-10-15T10:21:31.485Z,14.85
2022-10-15T10:22:45.603Z,14.84
2022-10-15T10:23:50.623Z,14.84
2022-10-15T10:24:53.746Z,14.83
2022-10-15T10:25:57.873Z,14.84
2022-10-15T10:27:01.891Z,14.85
2022-10-15T10:28:13.754Z,14.86
2022-10-15T10:29:36.567Z,14.89
2022-10-15T10:30:43.818Z,14.90
2022-10-15T10:31:50.311Z,14.91
2022-10-15T10:33:02.210Z,14.90
2022-10-15T10:34:05.595Z,14.90
2022-10-15T10:35:19.583Z,14.90
2022-10-15T10:36:22.709Z,14.90
2022-10-15T10:37:26.456Z,14.88
2022-10-15T10:38:31.575Z,14.87
2022-10-15T10:39:36.483Z,14.85
2022-10-15T10:40:39.319Z,14.83
2022-10-15T10:41:48.711Z,14.81
2022-10-15T10:43:09.623Z,14.80
2022-10-15T10:44:19.236Z,14.77
2022-10-15T10:45:24.078Z,14.76
2022-10-15T10:46:27.136Z,14.76
2022-10-15T10:47:38.157Z,14.75
2022-10-15T10:48:45.902Z,14.74
2022-10-15T10:49:48.727Z,14.70
2022-10-15T10:51:09.011Z,14.67
2022-10-15T10:52:23.225Z,14.65
2022-10-15T10:53:26.648Z,14.62
2022-10-15T10:54:31.018Z,14.61
2022-10-15T10:55:38.286Z,14.60
2022-10-15T10:56:43.195Z,14.59
2022-10-15T10:57:49.135Z,14.58
2022-10-15T10:58:55.888Z,14.58
2022-10-15T10:59:58.868Z,14.57
2022-10-15T11:01:02.121Z,14.56
2022-10-15T11:02:10.688Z,14.56
2022-10-15T11:03:16.396Z,14.56
2022-10-15T11:04:32.345Z,14.56
2022-10-15T11:05:37.832Z,14.58
2022-10-15T11:06:59.392Z,14.60
2022-10-15T11:08:15.171Z,14.64
2022-10-15T11:09:41.905Z,14.69
2022-10-15T11:10:47.869Z,14.71
2022-10-15T11:12:08.729Z,14.75
2022-10-15T11:13:31.497Z,14.80
2022-10-15T11:14:54.131Z,14.88
2022-10-15T11:16:24.300Z,14.94
2022-10-15T11:17:45.115Z,15.00
2022-10-15T11:18:53.727Z,15.03
2022-10-15T11:21:22.635Z,15.07
2022-10-15T11:22:26.695Z,15.07
2022-10-15T11:23:38.476Z,15.06
2022-10-15T11:24:49.087Z,15.06
2022-10-15T11:26:04.433Z,15.07
2022-10-15T11:27:22.375Z,15.09
2022-10-15T11:28:43.611Z,15.12
2022-10-15T11:30:14.945Z,15.16
2022-10-15T11:31:28.020Z,15.19
2022-10-15T11:32:54.569Z,15.19
2022-10-15T11:34:15.508Z,15.19
2022-10-15T11:35:51.566Z,15.22
2022-10-15T11:37:05.554Z,15.25
2022-10-15T11:38:14.134Z,15.27
2022-10-15T11:39:32.497Z,15.27
2022-10-15T11:40:44.250Z,15.28
2022-10-15T11:42:05.537Z,15.29
2022-10-15T11:43:34.786Z,15.31
2022-10-15T11:44:40.386Z,15.34
2022-10-15T11:45:48.770Z,15.35
2022-10-15T11:47:01.165Z,15.35
2022-10-15T11:48:08.655Z,15.33
2022-10-15T11:49:23.292Z,15.30
2022-10-15T11:50:45.731Z,15.31
2022-10-15T11:52:07.236Z,15.35
2022-10-15T11:53:28.362Z,15.40
2022-10-15T11:54:40.431Z,15.43
2022-10-15T11:56:04.859Z,15.44
2022-10-15T11:57:10.756Z,15.41
2022-10-15T11:58:45.970Z,15.40
2022-10-15T11:59:57.164Z,15.38
2022-10-15T12:01:11.904Z,15.39
2022-10-15T12:02:20.835Z,15.41
2022-10-15T12:03:26.010Z,15.43
2022-10-15T12:04:31.773Z,15.44
2022-10-15T12:05:39.033Z,15.46
2022-10-15T12:06:45.355Z,15.47
2022-10-15T12:07:49.344Z,15.48
2022-10-15T12:08:56.841Z,15.50
2022-10-15T12:10:20.151Z,15.50
2022-10-15T12:11:49.231Z,15.53
2022-10-15T12:13:05.480Z,15.57
2022-10-15T12:14:17.177Z,15.62
2022-10-15T12:15:26.491Z,15.66
2022-10-15T12:16:48.292Z,15.66
2022-10-15T12:18:14.247Z,15.66
2022-10-15T12:19:29.409Z,15.70
2022-10-15T12:20:32.721Z,15.74
2022-10-15T12:21:40.165Z,15.77
2022-10-15T12:22:51.977Z,15.80
2022-10-15T12:23:54.834Z,15.85
2022-10-15T12:24:57.860Z,15.88
2022-10-15T12:26:02.992Z,15.91
2022-10-15T12:27:21.619Z,15.94
2022-10-15T12:28:27.070Z,15.96
2022-10-15T12:29:29.973Z,15.96
2022-10-15T12:30:34.594Z,15.96
2022-10-15T12:31:50.810Z,15.96
2022-10-15T12:32:53.941Z,15.97
2022-10-15T12:33:57.536Z,16.01
2022-10-15T12:35:02.351Z,16.08
2022-10-15T12:36:20.673Z,16.18
2022-10-15T12:37:25.555Z,16.28
2022-10-15T12:38:30.299Z,16.37
2022-10-15T12:39:51.062Z,16.44
2022-10-15T12:41:06.355Z,16.49
2022-10-15T12:42:27.914Z,16.53
2022-10-15T12:43:31.855Z,16.58
2022-10-15T12:44:35.254Z,16.62
2022-10-15T12:45:48.264Z,16.69
2022-10-15T12:46:51.400Z,16.81
2022-10-15T12:47:56.136Z,16.94
2022-10-15T12:48:59.076Z,17.05
2022-10-15T12:50:05.959Z,17.12
2022-10-15T12:51:24.092Z,17.21
2022-10-15T12:52:45.756Z,17.31
2022-10-15T12:53:49.879Z,17.53
2022-10-15T12:54:52.879Z,17.74
2022-10-15T12:56:15.391Z,17.88
2022-10-15T12:57:30.869Z,18.01
2022-10-15T12:58:35.160Z,18.10
2022-10-15T12:59:44.211Z,18.12
2022-10-15T13:00:47.395Z,18.16
2022-10-15T13:01:52.147Z,18.15
2022-10-15T13:02:55.931Z,18.13
2022-10-15T13:03:59.695Z,18.05
2022-10-15T13:05:03.829Z,17.94
2022-10-15T13:06:13.432Z,17.84
2022-10-15T13:07:16.379Z,17.74
2022-10-15T13:08:23.843Z,17.65
2022-10-15T13:09:30.559Z,17.54
2022-10-15T13:10:48.761Z,17.46
2022-10-15T13:11:56.244Z,17.37
2022-10-15T13:13:13.639Z,17.30
2022-10-15T13:14:31.389Z,17.22
2022-10-15T13:15:35.332Z,17.19
2022-10-15T13:16:42.173Z,17.14
2022-10-15T13:17:45.965Z,17.10
2022-10-15T13:18:52.254Z,17.04
2022-10-15T13:19:59.906Z,16.98
2022-10-15T13:21:03.361Z,16.94
2022-10-15T13:22:19.400Z,16.88
2022-10-15T13:23:30.330Z,16.78
2022-10-15T13:24:43.310Z,16.68
2022-10-15T13:25:50.307Z,16.58
2022-10-15T13:26:55.380Z,16.52
2022-10-15T13:27:58.224Z,16.46
2022-10-15T13:29:01.156Z,16.41
2022-10-15T13:30:05.877Z,16.35
2022-10-15T13:31:15.103Z,16.30
2022-10-15T13:32:18.363Z,16.25
2022-10-15T13:33:21.558Z,16.22
2022-10-15T13:34:32.091Z,16.18
2022-10-15T13:35:38.447Z,16.14
2022-10-15T13:36:41.379Z,16.09
2022-10-15T13:37:45.017Z,16.05
2022-10-15T13:38:52.409Z,16.01
2022-10-15T13:39:55.495Z,15.96
2022-10-15T13:40:58.395Z,15.91
2022-10-15T13:42:14.635Z,15.87
2022-10-15T13:43:19.693Z,15.82
2022-10-15T13:44:23.337Z,15.79
2022-10-15T13:45:26.166Z,15.76
2022-10-15T13:46:38.723Z,15.72
2022-10-15T13:47:42.436Z,15.70
2022-10-15T13:48:45.319Z,15.67
2022-10-15T13:49:48.171Z,15.66
2022-10-15T13:51:00.898Z,15.65
2022-10-15T13:52:04.270Z,15.65
2022-10-15T13:53:09.931Z,15.64
2022-10-15T13:54:17.605Z,15.63
2022-10-15T13:55:30.879Z,15.62
2022-10-15T13:56:33.743Z,15.62
2022-10-15T13:57:36.628Z,15.62
2022-10-15T13:58:39.641Z,15.61
2022-10-15T13:59:44.361Z,15.60
2022-10-15T14:01:10.127Z,15.60
2022-10-15T14:02:14.251Z,15.58
2022-10-15T14:03:18.931Z,15.57
2022-10-15T14:04:23.329Z,15.57
2022-10-15T14:05:26.298Z,15.55
2022-10-15T14:06:30.990Z,15.53
2022-10-15T14:07:33.882Z,15.53
2022-10-15T14:08:36.869Z,15.53
2022-10-15T14:09:40.052Z,15.52
2022-10-15T14:10:43.128Z,15.51
2022-10-15T14:11:46.198Z,15.52
2022-10-15T14:12:52.070Z,15.52
2022-10-15T14:13:58.829Z,15.52
2022-10-15T14:15:20.340Z,15.51
2022-10-15T14:16:29.326Z,15.51
2022-10-15T14:17:32.112Z,15.51
2022-10-15T14:18:37.532Z,15.52
2022-10-15T14:19:40.365Z,15.52
2022-10-15T14:20:44.519Z,15.53
2022-10-15T14:21:51.818Z,15.53
2022-10-15T14:22:54.617Z,15.53
2022-10-15T14:24:23.509Z,15.52
2022-10-15T14:25:26.623Z,15.53
2022-10-15T14:26:30.203Z,15.54
2022-10-15T14:27:33.196Z,15.54
2022-10-15T14:28:37.465Z,15.55
2022-10-15T14:29:47.939Z,15.55
2022-10-15T14:30:51.198Z,15.55
2022-10-15T14:31:54.695Z,15.55
2022-10-15T14:32:57.998Z,15.55
2022-10-15T14:34:01.101Z,15.57
2022-10-15T14:35:10.072Z,15.57